sensor_id;sensor_type;location;lat;lon;timestamp;P1;durP1;ratioP1;P2;durP2;ratioP2
39674;SDS011;27790;50.840;4.386;2023-08-01T00:02:21;4.85;;;1.50;;
39674;SDS011;27790;50.840;4.386;2023-08-01T00:04:47;3.45;;;1.50;;
39674;SDS011;27790;50.840;4.386;2023-08-01T00:07:12;3.17;;;1.50;;
39674;SDS011;27790;50.840;4.386;2023-08-01T00:09:38;7.28;;;1.92;;
39674;SDS011;27790;50.840;4.386;2023-08-01T00:12:04;3.40;;;1.20;;
39674;SDS011;27790;50.840;4.386;2023-08-01T00:14:30;4.38;;;1.50;;
39674;SDS011;27790;50.840;4.386;2023-08-01T00:16:55;2.05;;;1.90;;
39674;SDS011;27790;50.840;4.386;2023-08-01T00:19:21;6.57;;;1.90;;
39674;SDS011;27790;50.840;4.386;2023-08-01T00:21:46;5.22;;;2.47;;
39674;SDS011;27790;50.840;4.386;2023-08-01T00:24:12;4.50;;;2.20;;
39674;SDS011;27790;50.840;4.386;2023-08-01T00:26:38;2.13;;;1.40;;
39674;SDS011;27790;50.840;4.386;2023-08-01T00:29:03;2.00;;;1.60;;
39674;SDS011;27790;50.840;4.386;2023-08-01T00:31:29;6.18;;;1.77;;
39674;SDS011;27790;50.840;4.386;2023-08-01T00:33:54;2.45;;;2.03;;
39674;SDS011;27790;50.840;4.386;2023-08-01T00:36:20;2.55;;;1.58;;
39674;SDS011;27790;50.840;4.386;2023-08-01T00:38:45;3.65;;;1.90;;
39674;SDS011;27790;50.840;4.386;2023-08-01T00:41:12;5.90;;;2.10;;
39674;SDS011;27790;50.840;4.386;2023-08-01T00:43:37;4.43;;;2.50;;
39674;SDS011;27790;50.840;4.386;2023-08-01T00:46:04;2.90;;;1.92;;
39674;SDS011;27790;50.840;4.386;2023-08-01T00:48:31;2.72;;;2.00;;
39674;SDS011;27790;50.840;4.386;2023-08-01T00:51:00;10.35;;;2.55;;
39674;SDS011;27790;50.840;4.386;2023-08-01T00:53:29;3.60;;;2.20;;
39674;SDS011;27790;50.840;4.386;2023-08-01T00:55:55;5.40;;;2.03;;
39674;SDS011;27790;50.840;4.386;2023-08-01T00:58:22;3.15;;;1.98;;
39674;SDS011;27790;50.840;4.386;2023-08-01T01:00:48;8.13;;;2.50;;
39674;SDS011;27790;50.840;4.386;2023-08-01T01:03:14;5.72;;;2.40;;
39674;SDS011;27790;50.840;4.386;2023-08-01T01:05:43;3.70;;;2.22;;
39674;SDS011;27790;50.840;4.386;2023-08-01T01:08:17;5.85;;;2.30;;
39674;SDS011;27790;50.840;4.386;2023-08-01T01:10:43;4.53;;;2.33;;
39674;SDS011;27790;50.840;4.386;2023-08-01T01:13:08;5.63;;;2.20;;
39674;SDS011;27790;50.840;4.386;2023-08-01T01:15:34;3.45;;;2.40;;
39674;SDS011;27790;50.840;4.386;2023-08-01T01:18:00;3.05;;;2.70;;
39674;SDS011;27790;50.840;4.386;2023-08-01T01:20:25;5.68;;;2.75;;
39674;SDS011;27790;50.840;4.386;2023-08-01T01:22:51;5.47;;;3.22;;
39674;SDS011;27790;50.840;4.386;2023-08-01T01:25:19;7.03;;;2.75;;
39674;SDS011;27790;50.840;4.386;2023-08-01T01:27:47;7.05;;;2.72;;
39674;SDS011;27790;50.840;4.386;2023-08-01T01:30:14;9.90;;;3.13;;
39674;SDS011;27790;50.840;4.386;2023-08-01T01:32:41;9.70;;;3.88;;
39674;SDS011;27790;50.840;4.386;2023-08-01T01:35:07;13.05;;;3.55;;
39674;SDS011;27790;50.840;4.386;2023-08-01T01:37:32;8.23;;;3.67;;
39674;SDS011;27790;50.840;4.386;2023-08-01T01:39:58;5.32;;;3.13;;
39674;SDS011;27790;50.840;4.386;2023-08-01T01:42:24;9.07;;;3.30;;
39674;SDS011;27790;50.840;4.386;2023-08-01T01:44:49;4.93;;;3.35;;
39674;SDS011;27790;50.840;4.386;2023-08-01T01:47:15;9.60;;;3.60;;
39674;SDS011;27790;50.840;4.386;2023-08-01T01:49:40;9.05;;;3.10;;
39674;SDS011;27790;50.840;4.386;2023-08-01T01:52:06;6.80;;;3.88;;
39674;SDS011;27790;50.840;4.386;2023-08-01T01:54:31;9.07;;;3.35;;
39674;SDS011;27790;50.840;4.386;2023-08-01T01:56:57;9.35;;;4.68;;
39674;SDS011;27790;50.840;4.386;2023-08-01T01:59:23;8.00;;;3.13;;
39674;SDS011;27790;50.840;4.386;2023-08-01T02:01:48;9.77;;;3.88;;
39674;SDS011;27790;50.840;4.386;2023-08-01T02:04:14;12.50;;;3.58;;
39674;SDS011;27790;50.840;4.386;2023-08-01T02:06:39;5.85;;;2.97;;
39674;SDS011;27790;50.840;4.386;2023-08-01T02:09:06;9.30;;;3.45;;
39674;SDS011;27790;50.840;4.386;2023-08-01T02:11:32;11.52;;;3.60;;
39674;SDS011;27790;50.840;4.386;2023-08-01T02:13:57;11.30;;;4.28;;
39674;SDS011;27790;50.840;4.386;2023-08-01T02:16:23;9.25;;;3.65;;
39674;SDS011;27790;50.840;4.386;2023-08-01T02:18:49;9.10;;;3.60;;
39674;SDS011;27790;50.840;4.386;2023-08-01T02:21:14;10.45;;;3.15;;
39674;SDS011;27790;50.840;4.386;2023-08-01T02:23:40;12.07;;;3.75;;
39674;SDS011;27790;50.840;4.386;2023-08-01T02:26:05;9.20;;;3.40;;
39674;SDS011;27790;50.840;4.386;2023-08-01T02:28:33;11.05;;;4.47;;
39674;SDS011;27790;50.840;4.386;2023-08-01T02:30:58;13.13;;;4.38;;
39674;SDS011;27790;50.840;4.386;2023-08-01T02:33:24;5.00;;;4.15;;
39674;SDS011;27790;50.840;4.386;2023-08-01T02:35:49;13.32;;;4.25;;
39674;SDS011;27790;50.840;4.386;2023-08-01T02:38:15;8.73;;;4.13;;
39674;SDS011;27790;50.840;4.386;2023-08-01T02:40:41;9.27;;;3.67;;
39674;SDS011;27790;50.840;4.386;2023-08-01T02:43:06;10.15;;;4.03;;
39674;SDS011;27790;50.840;4.386;2023-08-01T02:45:32;14.48;;;4.60;;
39674;SDS011;27790;50.840;4.386;2023-08-01T02:47:57;9.30;;;4.43;;
39674;SDS011;27790;50.840;4.386;2023-08-01T02:50:23;5.65;;;4.45;;
39674;SDS011;27790;50.840;4.386;2023-08-01T02:52:48;8.38;;;4.30;;
39674;SDS011;27790;50.840;4.386;2023-08-01T02:55:14;11.27;;;4.90;;
39674;SDS011;27790;50.840;4.386;2023-08-01T02:57:40;10.95;;;4.80;;
39674;SDS011;27790;50.840;4.386;2023-08-01T03:00:05;13.32;;;4.57;;
39674;SDS011;27790;50.840;4.386;2023-08-01T03:02:36;14.45;;;5.13;;
39674;SDS011;27790;50.840;4.386;2023-08-01T03:05:02;9.80;;;4.45;;
39674;SDS011;27790;50.840;4.386;2023-08-01T03:07:30;14.15;;;5.15;;
39674;SDS011;27790;50.840;4.386;2023-08-01T03:09:55;11.52;;;5.03;;
39674;SDS011;27790;50.840;4.386;2023-08-01T03:12:21;11.50;;;4.57;;
39674;SDS011;27790;50.840;4.386;2023-08-01T03:14:46;16.48;;;5.78;;
39674;SDS011;27790;50.840;4.386;2023-08-01T03:17:12;15.60;;;6.00;;
39674;SDS011;27790;50.840;4.386;2023-08-01T03:19:38;13.30;;;5.13;;
39674;SDS011;27790;50.840;4.386;2023-08-01T03:22:04;7.93;;;5.18;;
39674;SDS011;27790;50.840;4.386;2023-08-01T03:24:29;15.95;;;6.40;;
39674;SDS011;27790;50.840;4.386;2023-08-01T03:26:55;16.75;;;5.82;;
39674;SDS011;27790;50.840;4.386;2023-08-01T03:29:21;9.43;;;4.85;;
39674;SDS011;27790;50.840;4.386;2023-08-01T03:31:46;15.40;;;5.68;;
39674;SDS011;27790;50.840;4.386;2023-08-01T03:34:12;10.88;;;4.88;;
39674;SDS011;27790;50.840;4.386;2023-08-01T03:36:38;12.52;;;4.60;;
39674;SDS011;27790;50.840;4.386;2023-08-01T03:39:03;11.25;;;5.90;;
39674;SDS011;27790;50.840;4.386;2023-08-01T03:41:29;16.00;;;4.90;;
39674;SDS011;27790;50.840;4.386;2023-08-01T03:43:56;17.00;;;5.55;;
39674;SDS011;27790;50.840;4.386;2023-08-01T03:46:21;19.70;;;5.95;;
39674;SDS011;27790;50.840;4.386;2023-08-01T03:48:47;7.65;;;4.45;;
39674;SDS011;27790;50.840;4.386;2023-08-01T03:51:13;14.50;;;5.57;;
39674;SDS011;27790;50.840;4.386;2023-08-01T03:53:40;15.18;;;5.65;;
39674;SDS011;27790;50.840;4.386;2023-08-01T03:56:06;21.48;;;5.45;;
39674;SDS011;27790;50.840;4.386;2023-08-01T03:58:32;12.25;;;5.32;;
39674;SDS011;27790;50.840;4.386;2023-08-01T04:00:58;8.82;;;4.78;;
39674;SDS011;27790;50.840;4.386;2023-08-01T04:03:23;17.92;;;5.85;;
39674;SDS011;27790;50.840;4.386;2023-08-01T04:05:49;18.75;;;5.68;;
39674;SDS011;27790;50.840;4.386;2023-08-01T04:08:14;15.40;;;5.18;;
39674;SDS011;27790;50.840;4.386;2023-08-01T04:10:40;20.52;;;5.47;;
39674;SDS011;27790;50.840;4.386;2023-08-01T04:13:06;14.38;;;5.70;;
39674;SDS011;27790;50.840;4.386;2023-08-01T04:15:31;18.27;;;5.30;;
39674;SDS011;27790;50.840;4.386;2023-08-01T04:17:57;12.88;;;5.65;;
39674;SDS011;27790;50.840;4.386;2023-08-01T04:20:22;13.10;;;5.18;;
39674;SDS011;27790;50.840;4.386;2023-08-01T04:22:48;14.63;;;5.68;;
39674;SDS011;27790;50.840;4.386;2023-08-01T04:25:13;21.98;;;6.07;;
39674;SDS011;27790;50.840;4.386;2023-08-01T04:27:39;12.63;;;4.85;;
39674;SDS011;27790;50.840;4.386;2023-08-01T04:30:05;10.35;;;5.32;;
39674;SDS011;27790;50.840;4.386;2023-08-01T04:32:31;17.38;;;7.20;;
39674;SDS011;27790;50.840;4.386;2023-08-01T04:34:56;17.88;;;5.88;;
39674;SDS011;27790;50.840;4.386;2023-08-01T04:37:22;11.85;;;5.22;;
39674;SDS011;27790;50.840;4.386;2023-08-01T04:39:48;16.25;;;6.07;;
39674;SDS011;27790;50.840;4.386;2023-08-01T04:42:14;12.80;;;5.10;;
39674;SDS011;27790;50.840;4.386;2023-08-01T04:44:39;12.32;;;7.15;;
39674;SDS011;27790;50.840;4.386;2023-08-01T04:47:05;19.05;;;5.28;;
39674;SDS011;27790;50.840;4.386;2023-08-01T04:49:31;13.15;;;5.95;;
39674;SDS011;27790;50.840;4.386;2023-08-01T04:51:56;15.77;;;5.57;;
39674;SDS011;27790;50.840;4.386;2023-08-01T04:54:22;17.02;;;5.45;;
39674;SDS011;27790;50.840;4.386;2023-08-01T04:56:47;15.05;;;5.72;;
39674;SDS011;27790;50.840;4.386;2023-08-01T04:59:13;16.38;;;5.82;;
39674;SDS011;27790;50.840;4.386;2023-08-01T05:01:38;19.75;;;5.93;;
39674;SDS011;27790;50.840;4.386;2023-08-01T05:04:04;12.13;;;5.13;;
39674;SDS011;27790;50.840;4.386;2023-08-01T05:06:30;18.38;;;6.57;;
39674;SDS011;27790;50.840;4.386;2023-08-01T05:08:55;13.75;;;5.20;;
39674;SDS011;27790;50.840;4.386;2023-08-01T05:11:21;16.15;;;5.40;;
39674;SDS011;27790;50.840;4.386;2023-08-01T05:13:46;20.13;;;5.70;;
39674;SDS011;27790;50.840;4.386;2023-08-01T05:16:12;12.60;;;5.53;;
39674;SDS011;27790;50.840;4.386;2023-08-01T05:18:38;10.52;;;4.93;;
39674;SDS011;27790;50.840;4.386;2023-08-01T05:21:03;18.15;;;6.05;;
39674;SDS011;27790;50.840;4.386;2023-08-01T05:23:29;9.48;;;4.78;;
39674;SDS011;27790;50.840;4.386;2023-08-01T05:25:54;11.93;;;4.80;;
39674;SDS011;27790;50.840;4.386;2023-08-01T05:28:20;16.85;;;5.28;;
39674;SDS011;27790;50.840;4.386;2023-08-01T05:30:46;15.45;;;5.72;;
39674;SDS011;27790;50.840;4.386;2023-08-01T05:33:12;12.05;;;5.28;;
39674;SDS011;27790;50.840;4.386;2023-08-01T05:35:38;14.82;;;5.07;;
39674;SDS011;27790;50.840;4.386;2023-08-01T05:38:03;13.85;;;5.30;;
39674;SDS011;27790;50.840;4.386;2023-08-01T05:40:29;14.20;;;6.00;;
39674;SDS011;27790;50.840;4.386;2023-08-01T05:42:54;18.13;;;5.50;;
39674;SDS011;27790;50.840;4.386;2023-08-01T05:45:20;15.23;;;5.60;;
39674;SDS011;27790;50.840;4.386;2023-08-01T05:47:46;16.77;;;6.15;;
39674;SDS011;27790;50.840;4.386;2023-08-01T05:50:11;15.63;;;6.43;;
39674;SDS011;27790;50.840;4.386;2023-08-01T05:52:37;14.73;;;5.80;;
39674;SDS011;27790;50.840;4.386;2023-08-01T05:55:03;14.15;;;5.80;;
39674;SDS011;27790;50.840;4.386;2023-08-01T05:57:29;19.23;;;6.03;;
39674;SDS011;27790;50.840;4.386;2023-08-01T05:59:55;10.77;;;4.88;;
39674;SDS011;27790;50.840;4.386;2023-08-01T06:02:20;12.68;;;5.38;;
39674;SDS011;27790;50.840;4.386;2023-08-01T06:04:49;14.80;;;5.07;;
39674;SDS011;27790;50.840;4.386;2023-08-01T06:07:15;12.25;;;4.50;;
39674;SDS011;27790;50.840;4.386;2023-08-01T06:09:40;14.10;;;5.57;;
39674;SDS011;27790;50.840;4.386;2023-08-01T06:12:06;12.20;;;6.25;;
39674;SDS011;27790;50.840;4.386;2023-08-01T06:14:32;13.00;;;4.60;;
39674;SDS011;27790;50.840;4.386;2023-08-01T06:16:57;23.88;;;6.43;;
39674;SDS011;27790;50.840;4.386;2023-08-01T06:19:23;22.40;;;5.78;;
39674;SDS011;27790;50.840;4.386;2023-08-01T06:21:49;13.35;;;5.75;;
39674;SDS011;27790;50.840;4.386;2023-08-01T06:24:14;15.45;;;4.97;;
39674;SDS011;27790;50.840;4.386;2023-08-01T06:26:40;14.15;;;4.78;;
39674;SDS011;27790;50.840;4.386;2023-08-01T06:29:05;13.20;;;5.10;;
39674;SDS011;27790;50.840;4.386;2023-08-01T06:31:31;21.58;;;5.78;;
39674;SDS011;27790;50.840;4.386;2023-08-01T06:33:56;10.93;;;4.40;;
39674;SDS011;27790;50.840;4.386;2023-08-01T06:36:22;17.08;;;4.88;;
39674;SDS011;27790;50.840;4.386;2023-08-01T06:38:48;12.10;;;5.10;;
39674;SDS011;27790;50.840;4.386;2023-08-01T06:41:14;10.30;;;4.47;;
39674;SDS011;27790;50.840;4.386;2023-08-01T06:43:39;16.55;;;4.78;;
39674;SDS011;27790;50.840;4.386;2023-08-01T06:46:05;14.27;;;4.93;;
39674;SDS011;27790;50.840;4.386;2023-08-01T06:48:31;12.20;;;5.47;;
39674;SDS011;27790;50.840;4.386;2023-08-01T06:50:59;13.48;;;4.97;;
39674;SDS011;27790;50.840;4.386;2023-08-01T06:53:26;13.88;;;4.53;;
39674;SDS011;27790;50.840;4.386;2023-08-01T06:55:51;12.15;;;5.05;;
39674;SDS011;27790;50.840;4.386;2023-08-01T06:58:17;8.45;;;4.55;;
39674;SDS011;27790;50.840;4.386;2023-08-01T07:00:43;12.13;;;5.18;;
39674;SDS011;27790;50.840;4.386;2023-08-01T07:03:09;14.95;;;6.18;;
39674;SDS011;27790;50.840;4.386;2023-08-01T07:05:35;8.30;;;3.85;;
39674;SDS011;27790;50.840;4.386;2023-08-01T07:08:00;12.25;;;5.25;;
39674;SDS011;27790;50.840;4.386;2023-08-01T07:10:26;11.77;;;4.88;;
39674;SDS011;27790;50.840;4.386;2023-08-01T07:12:51;12.02;;;4.60;;
39674;SDS011;27790;50.840;4.386;2023-08-01T07:15:17;9.82;;;5.00;;
39674;SDS011;27790;50.840;4.386;2023-08-01T07:17:42;17.88;;;4.63;;
39674;SDS011;27790;50.840;4.386;2023-08-01T07:20:08;13.70;;;5.47;;
39674;SDS011;27790;50.840;4.386;2023-08-01T07:22:34;10.80;;;4.30;;
39674;SDS011;27790;50.840;4.386;2023-08-01T07:24:59;12.73;;;4.95;;
39674;SDS011;27790;50.840;4.386;2023-08-01T07:27:25;9.95;;;5.03;;
39674;SDS011;27790;50.840;4.386;2023-08-01T07:29:51;14.63;;;4.10;;
39674;SDS011;27790;50.840;4.386;2023-08-01T07:32:16;10.68;;;4.40;;
39674;SDS011;27790;50.840;4.386;2023-08-01T07:34:42;8.82;;;4.78;;
39674;SDS011;27790;50.840;4.386;2023-08-01T07:37:07;7.07;;;4.15;;
39674;SDS011;27790;50.840;4.386;2023-08-01T07:39:33;11.02;;;4.47;;
39674;SDS011;27790;50.840;4.386;2023-08-01T07:42:01;18.83;;;4.55;;
39674;SDS011;27790;50.840;4.386;2023-08-01T07:44:27;17.50;;;4.72;;
39674;SDS011;27790;50.840;4.386;2023-08-01T07:46:54;10.85;;;4.60;;
39674;SDS011;27790;50.840;4.386;2023-08-01T07:49:19;12.90;;;4.13;;
39674;SDS011;27790;50.840;4.386;2023-08-01T07:51:45;11.80;;;4.85;;
39674;SDS011;27790;50.840;4.386;2023-08-01T07:54:10;11.80;;;4.03;;
39674;SDS011;27790;50.840;4.386;2023-08-01T07:56:36;13.23;;;3.97;;
39674;SDS011;27790;50.840;4.386;2023-08-01T07:59:01;13.45;;;4.47;;
39674;SDS011;27790;50.840;4.386;2023-08-01T08:01:27;11.68;;;4.25;;
39674;SDS011;27790;50.840;4.386;2023-08-01T08:03:53;12.73;;;3.60;;
39674;SDS011;27790;50.840;4.386;2023-08-01T08:06:18;9.07;;;4.10;;
39674;SDS011;27790;50.840;4.386;2023-08-01T08:08:46;12.02;;;3.58;;
39674;SDS011;27790;50.840;4.386;2023-08-01T08:11:11;13.07;;;4.30;;
39674;SDS011;27790;50.840;4.386;2023-08-01T08:13:37;13.52;;;4.18;;
39674;SDS011;27790;50.840;4.386;2023-08-01T08:16:02;10.52;;;3.55;;
39674;SDS011;27790;50.840;4.386;2023-08-01T08:18:29;7.43;;;3.72;;
39674;SDS011;27790;50.840;4.386;2023-08-01T08:20:55;7.57;;;2.78;;
39674;SDS011;27790;50.840;4.386;2023-08-01T08:23:20;11.48;;;3.30;;
39674;SDS011;27790;50.840;4.386;2023-08-01T08:25:46;7.75;;;3.42;;
39674;SDS011;27790;50.840;4.386;2023-08-01T08:28:12;6.60;;;3.42;;
39674;SDS011;27790;50.840;4.386;2023-08-01T08:30:38;13.05;;;3.97;;
39674;SDS011;27790;50.840;4.386;2023-08-01T08:33:04;7.60;;;3.58;;
39674;SDS011;27790;50.840;4.386;2023-08-01T08:35:31;9.40;;;3.85;;
39674;SDS011;27790;50.840;4.386;2023-08-01T08:37:59;10.73;;;3.03;;
39674;SDS011;27790;50.840;4.386;2023-08-01T08:40:27;9.85;;;3.67;;
39674;SDS011;27790;50.840;4.386;2023-08-01T08:42:53;9.40;;;3.33;;
39674;SDS011;27790;50.840;4.386;2023-08-01T08:45:19;7.25;;;2.45;;
39674;SDS011;27790;50.840;4.386;2023-08-01T08:47:46;11.02;;;3.25;;
39674;SDS011;27790;50.840;4.386;2023-08-01T08:50:17;6.95;;;2.72;;
39674;SDS011;27790;50.840;4.386;2023-08-01T08:52:44;11.15;;;3.00;;
39674;SDS011;27790;50.840;4.386;2023-08-01T08:55:10;13.15;;;3.10;;
39674;SDS011;27790;50.840;4.386;2023-08-01T08:57:36;4.07;;;2.58;;
39674;SDS011;27790;50.840;4.386;2023-08-01T09:00:04;10.00;;;3.03;;
39674;SDS011;27790;50.840;4.386;2023-08-01T09:02:30;11.63;;;3.45;;
39674;SDS011;27790;50.840;4.386;2023-08-01T09:04:57;11.02;;;2.80;;
39674;SDS011;27790;50.840;4.386;2023-08-01T09:07:23;9.70;;;3.33;;
39674;SDS011;27790;50.840;4.386;2023-08-01T09:09:51;9.73;;;2.83;;
39674;SDS011;27790;50.840;4.386;2023-08-01T09:12:17;7.72;;;2.58;;
39674;SDS011;27790;50.840;4.386;2023-08-01T09:14:42;7.28;;;2.55;;
39674;SDS011;27790;50.840;4.386;2023-08-01T09:17:08;10.32;;;3.38;;
39674;SDS011;27790;50.840;4.386;2023-08-01T09:19:34;9.55;;;2.95;;
39674;SDS011;27790;50.840;4.386;2023-08-01T09:22:01;8.73;;;3.20;;
39674;SDS011;27790;50.840;4.386;2023-08-01T09:24:27;6.60;;;2.72;;
39674;SDS011;27790;50.840;4.386;2023-08-01T09:26:52;6.53;;;2.70;;
39674;SDS011;27790;50.840;4.386;2023-08-01T09:29:29;10.50;;;3.25;;
39674;SDS011;27790;50.840;4.386;2023-08-01T09:31:56;5.82;;;1.98;;
39674;SDS011;27790;50.840;4.386;2023-08-01T09:34:23;6.18;;;2.40;;
39674;SDS011;27790;50.840;4.386;2023-08-01T09:36:50;7.72;;;2.38;;
39674;SDS011;27790;50.840;4.386;2023-08-01T09:39:17;7.55;;;2.10;;
39674;SDS011;27790;50.840;4.386;2023-08-01T09:41:44;5.00;;;2.15;;
39674;SDS011;27790;50.840;4.386;2023-08-01T09:44:16;4.55;;;2.28;;
39674;SDS011;27790;50.840;4.386;2023-08-01T09:46:42;10.73;;;2.17;;
39674;SDS011;27790;50.840;4.386;2023-08-01T09:49:12;6.38;;;2.38;;
39674;SDS011;27790;50.840;4.386;2023-08-01T09:51:48;6.03;;;2.70;;
39674;SDS011;27790;50.840;4.386;2023-08-01T09:54:15;5.82;;;2.13;;
39674;SDS011;27790;50.840;4.386;2023-08-01T09:56:41;3.28;;;2.13;;
39674;SDS011;27790;50.840;4.386;2023-08-01T09:59:10;10.13;;;3.20;;
39674;SDS011;27790;50.840;4.386;2023-08-01T10:01:36;8.93;;;2.20;;
39674;SDS011;27790;50.840;4.386;2023-08-01T10:04:04;10.63;;;2.45;;
39674;SDS011;27790;50.840;4.386;2023-08-01T10:06:33;9.23;;;2.55;;
39674;SDS011;27790;50.840;4.386;2023-08-01T10:09:02;4.88;;;2.08;;
39674;SDS011;27790;50.840;4.386;2023-08-01T10:11:29;10.13;;;2.42;;
39674;SDS011;27790;50.840;4.386;2023-08-01T10:13:58;10.07;;;3.38;;
39674;SDS011;27790;50.840;4.386;2023-08-01T10:16:27;7.60;;;2.63;;
39674;SDS011;27790;50.840;4.386;2023-08-01T10:18:53;7.15;;;2.60;;
39674;SDS011;27790;50.840;4.386;2023-08-01T10:21:19;8.55;;;2.67;;
39674;SDS011;27790;50.840;4.386;2023-08-01T10:23:46;5.53;;;2.92;;
39674;SDS011;27790;50.840;4.386;2023-08-01T10:26:12;6.03;;;3.10;;
39674;SDS011;27790;50.840;4.386;2023-08-01T10:28:48;5.43;;;2.50;;
39674;SDS011;27790;50.840;4.386;2023-08-01T10:31:16;7.72;;;2.33;;
39674;SDS011;27790;50.840;4.386;2023-08-01T10:33:47;3.92;;;1.92;;
39674;SDS011;27790;50.840;4.386;2023-08-01T10:36:17;7.95;;;2.55;;
39674;SDS011;27790;50.840;4.386;2023-08-01T10:38:46;7.60;;;2.33;;
39674;SDS011;27790;50.840;4.386;2023-08-01T10:41:20;2.88;;;1.20;;
39674;SDS011;27790;50.840;4.386;2023-08-01T10:44:12;2.88;;;1.80;;
39674;SDS011;27790;50.840;4.386;2023-08-01T10:49:15;4.22;;;2.25;;
39674;SDS011;27790;50.840;4.386;2023-08-01T10:51:42;5.93;;;1.90;;
39674;SDS011;27790;50.840;4.386;2023-08-01T10:54:26;4.25;;;1.80;;
39674;SDS011;27790;50.840;4.386;2023-08-01T10:56:55;4.55;;;1.50;;
39674;SDS011;27790;50.840;4.386;2023-08-01T10:59:25;4.30;;;2.20;;
39674;SDS011;27790;50.840;4.386;2023-08-01T11:01:51;9.70;;;2.35;;
39674;SDS011;27790;50.840;4.386;2023-08-01T11:04:19;4.18;;;1.80;;
39674;SDS011;27790;50.840;4.386;2023-08-01T11:06:47;5.07;;;1.45;;
39674;SDS011;27790;50.840;4.386;2023-08-01T11:09:21;7.78;;;2.20;;
39674;SDS011;27790;50.840;4.386;2023-08-01T11:11:49;5.28;;;1.52;;
39674;SDS011;27790;50.840;4.386;2023-08-01T11:14:20;5.45;;;1.90;;
39674;SDS011;27790;50.840;4.386;2023-08-01T11:16:47;4.60;;;1.88;;
39674;SDS011;27790;50.840;4.386;2023-08-01T11:19:17;3.50;;;1.42;;
39674;SDS011;27790;50.840;4.386;2023-08-01T11:21:44;2.35;;;1.38;;
39674;SDS011;27790;50.840;4.386;2023-08-01T11:24:10;3.92;;;1.83;;
39674;SDS011;27790;50.840;4.386;2023-08-01T11:26:35;5.22;;;1.45;;
39674;SDS011;27790;50.840;4.386;2023-08-01T11:29:05;5.18;;;2.42;;
39674;SDS011;27790;50.840;4.386;2023-08-01T11:31:30;4.75;;;1.60;;
39674;SDS011;27790;50.840;4.386;2023-08-01T11:33:56;5.65;;;1.52;;
39674;SDS011;27790;50.840;4.386;2023-08-01T11:36:29;7.28;;;2.00;;
39674;SDS011;27790;50.840;4.386;2023-08-01T11:38:58;6.43;;;1.58;;
39674;SDS011;27790;50.840;4.386;2023-08-01T11:41:26;4.53;;;1.75;;
39674;SDS011;27790;50.840;4.386;2023-08-01T11:43:52;4.93;;;1.52;;
39674;SDS011;27790;50.840;4.386;2023-08-01T11:46:37;3.85;;;1.45;;
39674;SDS011;27790;50.840;4.386;2023-08-01T11:49:05;4.97;;;1.60;;
39674;SDS011;27790;50.840;4.386;2023-08-01T11:51:38;5.10;;;1.48;;
39674;SDS011;27790;50.840;4.386;2023-08-01T11:54:05;3.75;;;1.20;;
39674;SDS011;27790;50.840;4.386;2023-08-01T11:56:32;2.10;;;1.15;;
39674;SDS011;27790;50.840;4.386;2023-08-01T11:58:58;4.47;;;1.30;;
39674;SDS011;27790;50.840;4.386;2023-08-01T12:01:24;4.05;;;1.80;;
39674;SDS011;27790;50.840;4.386;2023-08-01T12:03:54;5.85;;;1.67;;
39674;SDS011;27790;50.840;4.386;2023-08-01T12:06:22;6.38;;;1.63;;
39674;SDS011;27790;50.840;4.386;2023-08-01T12:08:51;2.83;;;1.50;;
39674;SDS011;27790;50.840;4.386;2023-08-01T12:11:24;4.88;;;1.13;;
39674;SDS011;27790;50.840;4.386;2023-08-01T12:16:27;2.85;;;1.50;;
39674;SDS011;27790;50.840;4.386;2023-08-01T12:18:53;5.05;;;1.55;;
39674;SDS011;27790;50.840;4.386;2023-08-01T12:21:19;3.45;;;1.58;;
39674;SDS011;27790;50.840;4.386;2023-08-01T12:23:44;7.78;;;1.95;;
39674;SDS011;27790;50.840;4.386;2023-08-01T12:26:10;6.25;;;1.58;;
39674;SDS011;27790;50.840;4.386;2023-08-01T12:28:36;5.35;;;1.67;;
39674;SDS011;27790;50.840;4.386;2023-08-01T12:31:01;6.63;;;1.90;;
39674;SDS011;27790;50.840;4.386;2023-08-01T12:33:28;3.45;;;1.10;;
39674;SDS011;27790;50.840;4.386;2023-08-01T12:35:54;4.82;;;1.88;;
39674;SDS011;27790;50.840;4.386;2023-08-01T12:38:20;5.07;;;1.45;;
39674;SDS011;27790;50.840;4.386;2023-08-01T12:40:45;3.72;;;1.13;;
39674;SDS011;27790;50.840;4.386;2023-08-01T12:43:12;8.30;;;1.35;;
39674;SDS011;27790;50.840;4.386;2023-08-01T12:45:37;4.40;;;1.40;;
39674;SDS011;27790;50.840;4.386;2023-08-01T12:48:03;4.72;;;1.58;;
39674;SDS011;27790;50.840;4.386;2023-08-01T12:50:29;2.83;;;1.40;;
39674;SDS011;27790;50.840;4.386;2023-08-01T12:52:57;4.70;;;1.45;;
39674;SDS011;27790;50.840;4.386;2023-08-01T12:55:23;4.97;;;1.35;;
39674;SDS011;27790;50.840;4.386;2023-08-01T12:57:48;5.60;;;1.30;;
39674;SDS011;27790;50.840;4.386;2023-08-01T13:00:14;4.80;;;2.33;;
39674;SDS011;27790;50.840;4.386;2023-08-01T13:02:40;2.10;;;1.35;;
39674;SDS011;27790;50.840;4.386;2023-08-01T13:05:05;2.50;;;1.27;;
39674;SDS011;27790;50.840;4.386;2023-08-01T13:07:31;4.50;;;1.55;;
39674;SDS011;27790;50.840;4.386;2023-08-01T13:09:58;6.53;;;1.63;;
39674;SDS011;27790;50.840;4.386;2023-08-01T13:12:24;6.50;;;1.40;;
39674;SDS011;27790;50.840;4.386;2023-08-01T13:14:49;5.53;;;2.50;;
39674;SDS011;27790;50.840;4.386;2023-08-01T13:17:15;7.72;;;2.55;;
39674;SDS011;27790;50.840;4.386;2023-08-01T13:19:40;6.38;;;2.40;;
39674;SDS011;27790;50.840;4.386;2023-08-01T13:22:06;6.53;;;1.73;;
39674;SDS011;27790;50.840;4.386;2023-08-01T13:24:32;6.95;;;1.60;;
39674;SDS011;27790;50.840;4.386;2023-08-01T13:26:58;4.57;;;1.75;;
39674;SDS011;27790;50.840;4.386;2023-08-01T13:29:23;4.07;;;1.30;;
39674;SDS011;27790;50.840;4.386;2023-08-01T13:31:49;3.60;;;1.73;;
39674;SDS011;27790;50.840;4.386;2023-08-01T13:34:14;6.88;;;1.85;;
39674;SDS011;27790;50.840;4.386;2023-08-01T13:36:42;2.67;;;1.20;;
39674;SDS011;27790;50.840;4.386;2023-08-01T13:39:08;6.68;;;1.65;;
39674;SDS011;27790;50.840;4.386;2023-08-01T13:41:33;4.28;;;1.73;;
39674;SDS011;27790;50.840;4.386;2023-08-01T13:43:59;5.38;;;1.73;;
39674;SDS011;27790;50.840;4.386;2023-08-01T13:46:25;3.58;;;1.48;;
39674;SDS011;27790;50.840;4.386;2023-08-01T13:48:50;3.30;;;1.63;;
39674;SDS011;27790;50.840;4.386;2023-08-01T13:51:16;5.03;;;1.90;;
39674;SDS011;27790;50.840;4.386;2023-08-01T13:53:42;5.43;;;1.60;;
39674;SDS011;27790;50.840;4.386;2023-08-01T13:56:11;2.83;;;1.10;;
39674;SDS011;27790;50.840;4.386;2023-08-01T13:58:37;6.95;;;2.17;;
39674;SDS011;27790;50.840;4.386;2023-08-01T14:01:04;9.27;;;2.10;;
39674;SDS011;27790;50.840;4.386;2023-08-01T14:03:32;6.13;;;1.40;;
39674;SDS011;27790;50.840;4.386;2023-08-01T14:06:08;7.63;;;2.08;;
39674;SDS011;27790;50.840;4.386;2023-08-01T14:08:36;4.53;;;1.52;;
39674;SDS011;27790;50.840;4.386;2023-08-01T14:11:03;5.28;;;1.40;;
39674;SDS011;27790;50.840;4.386;2023-08-01T14:13:29;7.03;;;1.70;;
39674;SDS011;27790;50.840;4.386;2023-08-01T14:15:55;5.03;;;1.55;;
39674;SDS011;27790;50.840;4.386;2023-08-01T14:18:21;2.67;;;1.70;;
39674;SDS011;27790;50.840;4.386;2023-08-01T14:20:46;3.13;;;1.27;;
39674;SDS011;27790;50.840;4.386;2023-08-01T14:23:12;3.45;;;1.58;;
39674;SDS011;27790;50.840;4.386;2023-08-01T14:25:38;9.02;;;1.30;;
39674;SDS011;27790;50.840;4.386;2023-08-01T14:28:04;7.07;;;1.23;;
39674;SDS011;27790;50.840;4.386;2023-08-01T14:30:30;3.88;;;1.05;;
39674;SDS011;27790;50.840;4.386;2023-08-01T14:33:01;7.50;;;1.35;;
39674;SDS011;27790;50.840;4.386;2023-08-01T14:35:28;4.85;;;1.63;;
39674;SDS011;27790;50.840;4.386;2023-08-01T14:37:54;4.82;;;1.20;;
39674;SDS011;27790;50.840;4.386;2023-08-01T14:40:23;6.05;;;1.48;;
39674;SDS011;27790;50.840;4.386;2023-08-01T14:42:49;5.72;;;1.40;;
39674;SDS011;27790;50.840;4.386;2023-08-01T14:45:15;3.97;;;1.67;;